sensor_id;sensor_type;location;lat;lon;timestamp;pressure;altitude;pressure_sealevel;temperature;humidity
9672;BME280;4874;43.568;27.824;2023-03-01T00:01:14;99985.63;;;6.14;100.00
9672;BME280;4874;43.568;27.824;2023-03-01T00:03:42;99983.72;;;5.72;100.00
9672;BME280;4874;43.568;27.824;2023-03-01T00:06:08;99967.81;;;6.04;100.00
9672;BME280;4874;43.568;27.824;2023-03-01T00:08:35;99969.84;;;5.84;100.00
9672;BME280;4874;43.568;27.824;2023-03-01T00:13:33;99964.03;;;5.93;100.00
9672;BME280;4874;43.568;27.824;2023-03-01T00:16:08;99968.72;;;5.88;100.00
9672;BME280;4874;43.568;27.824;2023-03-01T00:18:35;99918.22;;;5.37;100.00
9672;BME280;4874;43.568;27.824;2023-03-01T00:21:02;99975.31;;;5.66;100.00
9672;BME280;4874;43.568;27.824;2023-03-01T00:23:29;99963.69;;;5.54;100.00
9672;BME280;4874;43.568;27.824;2023-03-01T00:25:55;99958.72;;;5.50;100.00
9672;BME280;4874;43.568;27.824;2023-03-01T00:28:23;99967.66;;;5.32;100.00
9672;BME280;4874;43.568;27.824;2023-03-01T00:30:49;99954.97;;;5.38;100.00
9672;BME280;4874;43.568;27.824;2023-03-01T00:33:17;99956.19;;;5.33;100.00
9672;BME280;4874;43.568;27.824;2023-03-01T00:35:44;99956.16;;;5.48;100.00
9672;BME280;4874;43.568;27.824;2023-03-01T00:38:11;99921.19;;;5.46;100.00
9672;BME280;4874;43.568;27.824;2023-03-01T00:40:37;99948.97;;;5.66;100.00
9672;BME280;4874;43.568;27.824;2023-03-01T00:43:04;99942.94;;;5.93;100.00
9672;BME280;4874;43.568;27.824;2023-03-01T00:45:32;99950.38;;;5.87;100.00
9672;BME280;4874;43.568;27.824;2023-03-01T00:47:59;99937.03;;;5.74;100.00
9672;BME280;4874;43.568;27.824;2023-03-01T00:50:25;99932.94;;;5.84;100.00
9672;BME280;4874;43.568;27.824;2023-03-01T00:52:54;99933.53;;;5.60;100.00
9672;BME280;4874;43.568;27.824;2023-03-01T00:55:21;99927.69;;;5.55;100.00
9672;BME280;4874;43.568;27.824;2023-03-01T00:57:49;99893.41;;;5.70;100.00
9672;BME280;4874;43.568;27.824;2023-03-01T01:00:16;99936.19;;;5.89;100.00
9672;BME280;4874;43.568;27.824;2023-03-01T01:02:42;99935.13;;;5.92;100.00
9672;BME280;4874;43.568;27.824;2023-03-01T01:05:09;99938.75;;;5.46;100.00
9672;BME280;4874;43.568;27.824;2023-03-01T01:07:36;99931.09;;;5.71;100.00
9672;BME280;4874;43.568;27.824;2023-03-01T01:10:03;99933.38;;;6.07;100.00
9672;BME280;4874;43.568;27.824;2023-03-01T01:12:30;99937.00;;;5.90;100.00
9672;BME280;4874;43.568;27.824;2023-03-01T01:14:58;99943.81;;;5.94;100.00
9672;BME280;4874;43.568;27.824;2023-03-01T01:17:24;99938.22;;;5.84;100.00
9672;BME280;4874;43.568;27.824;2023-03-01T01:19:51;99942.31;;;5.74;100.00
9672;BME280;4874;43.568;27.824;2023-03-01T01:22:18;99932.28;;;5.81;100.00
9672;BME280;4874;43.568;27.824;2023-03-01T01:24:44;99936.88;;;5.77;100.00
9672;BME280;4874;43.568;27.824;2023-03-01T01:27:11;99929.13;;;5.60;100.00
9672;BME280;4874;43.568;27.824;2023-03-01T01:29:38;99933.75;;;5.71;100.00
9672;BME280;4874;43.568;27.824;2023-03-01T01:32:04;99925.25;;;5.66;100.00
9672;BME280;4874;43.568;27.824;2023-03-01T01:34:31;99922.44;;;5.55;100.00
9672;BME280;4874;43.568;27.824;2023-03-01T01:36:58;99926.56;;;5.59;100.00
9672;BME280;4874;43.568;27.824;2023-03-01T01:39:29;99880.38;;;5.24;100.00
9672;BME280;4874;43.568;27.824;2023-03-01T01:41:56;99897.09;;;5.52;100.00
9672;BME280;4874;43.568;27.824;2023-03-01T01:44:23;99914.63;;;5.67;100.00
9672;BME280;4874;43.568;27.824;2023-03-01T01:52:21;99923.56;;;5.65;100.00
9672;BME280;4874;43.568;27.824;2023-03-01T01:54:57;99916.41;;;5.53;100.00
9672;BME280;4874;43.568;27.824;2023-03-01T01:57:32;99901.88;;;5.46;100.00
9672;BME280;4874;43.568;27.824;2023-03-01T02:00:06;99925.00;;;5.70;100.00
9672;BME280;4874;43.568;27.824;2023-03-01T02:02:34;99918.06;;;5.54;100.00
9672;BME280;4874;43.568;27.824;2023-03-01T02:07:51;99921.69;;;5.67;100.00
9672;BME280;4874;43.568;27.824;2023-03-01T02:10:20;99922.91;;;5.61;100.00
9672;BME280;4874;43.568;27.824;2023-03-01T02:12:47;99924.34;;;5.67;100.00
9672;BME280;4874;43.568;27.824;2023-03-01T02:15:14;99917.72;;;5.60;100.00
9672;BME280;4874;43.568;27.824;2023-03-01T02:17:41;99905.38;;;5.90;100.00
9672;BME280;4874;43.568;27.824;2023-03-01T02:20:30;99885.75;;;5.52;100.00
9672;BME280;4874;43.568;27.824;2023-03-01T02:22:59;99906.56;;;5.70;100.00
9672;BME280;4874;43.568;27.824;2023-03-01T02:30:35;99887.41;;;5.53;100.00
9672;BME280;4874;43.568;27.824;2023-03-01T02:33:03;99910.97;;;5.40;100.00
9672;BME280;4874;43.568;27.824;2023-03-01T02:35:36;99890.19;;;5.36;100.00
9672;BME280;4874;43.568;27.824;2023-03-01T02:38:06;99894.38;;;5.54;100.00
9672;BME280;4874;43.568;27.824;2023-03-01T02:40:36;99863.63;;;5.25;100.00
9672;BME280;4874;43.568;27.824;2023-03-01T02:43:06;99896.38;;;5.35;100.00
9672;BME280;4874;43.568;27.824;2023-03-01T02:45:35;99889.09;;;5.40;100.00
9672;BME280;4874;43.568;27.824;2023-03-01T02:48:02;99864.16;;;5.31;100.00
9672;BME280;4874;43.568;27.824;2023-03-01T02:55:33;99868.28;;;5.35;100.00
9672;BME280;4874;43.568;27.824;2023-03-01T02:58:02;99871.50;;;5.40;100.00
9672;BME280;4874;43.568;27.824;2023-03-01T03:00:41;99867.56;;;5.47;100.00
9672;BME280;4874;43.568;27.824;2023-03-01T03:03:16;99870.91;;;5.65;100.00
9672;BME280;4874;43.568;27.824;2023-03-01T03:05:43;99862.53;;;5.58;100.00
9672;BME280;4874;43.568;27.824;2023-03-01T03:08:10;99871.00;;;5.63;100.00
9672;BME280;4874;43.568;27.824;2023-03-01T03:10:39;99867.84;;;5.43;100.00
9672;BME280;4874;43.568;27.824;2023-03-01T03:13:10;99871.41;;;5.42;100.00
9672;BME280;4874;43.568;27.824;2023-03-01T03:15:38;99872.72;;;5.49;100.00
9672;BME280;4874;43.568;27.824;2023-03-01T03:18:08;99879.56;;;5.37;100.00
9672;BME280;4874;43.568;27.824;2023-03-01T03:20:36;99837.31;;;5.25;100.00
9672;BME280;4874;43.568;27.824;2023-03-01T03:23:04;99887.78;;;5.17;100.00
9672;BME280;4874;43.568;27.824;2023-03-01T03:25:30;99889.38;;;5.20;100.00
9672;BME280;4874;43.568;27.824;2023-03-01T03:27:57;99884.56;;;5.42;100.00
9672;BME280;4874;43.568;27.824;2023-03-01T03:30:30;99895.91;;;5.58;100.00
9672;BME280;4874;43.568;27.824;2023-03-01T03:32:58;99896.19;;;5.67;100.00
9672;BME280;4874;43.568;27.824;2023-03-01T03:35:31;99893.03;;;5.33;100.00
9672;BME280;4874;43.568;27.824;2023-03-01T03:37:59;99898.75;;;5.10;100.00
9672;BME280;4874;43.568;27.824;2023-03-01T03:43:03;99901.81;;;5.02;100.00
9672;BME280;4874;43.568;27.824;2023-03-01T03:45:31;99892.56;;;5.11;100.00
9672;BME280;4874;43.568;27.824;2023-03-01T03:48:00;99894.50;;;5.37;100.00
9672;BME280;4874;43.568;27.824;2023-03-01T03:50:28;99858.69;;;5.05;100.00
9672;BME280;4874;43.568;27.824;2023-03-01T03:52:55;99870.63;;;5.26;100.00
9672;BME280;4874;43.568;27.824;2023-03-01T03:55:21;99882.72;;;5.28;100.00
9672;BME280;4874;43.568;27.824;2023-03-01T03:57:48;99893.16;;;5.30;100.00
9672;BME280;4874;43.568;27.824;2023-03-01T04:00:20;99889.16;;;5.38;100.00
9672;BME280;4874;43.568;27.824;2023-03-01T04:02:48;99889.81;;;5.28;100.00
9672;BME280;4874;43.568;27.824;2023-03-01T04:05:17;99879.63;;;5.22;100.00
9672;BME280;4874;43.568;27.824;2023-03-01T04:07:44;99879.16;;;5.00;100.00
9672;BME280;4874;43.568;27.824;2023-03-01T04:10:15;99886.88;;;5.03;100.00
9672;BME280;4874;43.568;27.824;2023-03-01T04:12:42;99889.59;;;4.86;100.00
9672;BME280;4874;43.568;27.824;2023-03-01T04:15:10;99877.31;;;4.86;100.00
9672;BME280;4874;43.568;27.824;2023-03-01T04:17:45;99882.38;;;4.89;100.00
9672;BME280;4874;43.568;27.824;2023-03-01T04:20:14;99881.56;;;5.18;100.00
9672;BME280;4874;43.568;27.824;2023-03-01T04:23:14;99877.72;;;4.94;100.00
9672;BME280;4874;43.568;27.824;2023-03-01T04:25:46;99882.19;;;5.08;100.00
9672;BME280;4874;43.568;27.824;2023-03-01T04:30:52;99881.00;;;4.98;100.00
9672;BME280;4874;43.568;27.824;2023-03-01T04:33:19;99874.34;;;5.22;100.00
9672;BME280;4874;43.568;27.824;2023-03-01T04:35:46;99868.81;;;4.97;100.00
9672;BME280;4874;43.568;27.824;2023-03-01T04:38:16;99866.06;;;5.14;100.00
9672;BME280;4874;43.568;27.824;2023-03-01T04:40:43;99867.69;;;5.01;100.00
9672;BME280;4874;43.568;27.824;2023-03-01T04:43:10;99866.69;;;5.33;100.00
9672;BME280;4874;43.568;27.824;2023-03-01T04:45:39;99872.28;;;5.27;100.00
9672;BME280;4874;43.568;27.824;2023-03-01T04:48:06;99882.38;;;5.34;100.00
9672;BME280;4874;43.568;27.824;2023-03-01T04:50:33;99870.66;;;5.10;100.00
9672;BME280;4874;43.568;27.824;2023-03-01T04:53:01;99844.03;;;4.85;100.00
9672;BME280;4874;43.568;27.824;2023-03-01T04:55:28;99882.72;;;4.99;100.00
9672;BME280;4874;43.568;27.824;2023-03-01T04:57:55;99882.84;;;4.82;100.00
9672;BME280;4874;43.568;27.824;2023-03-01T05:00:23;99892.72;;;5.08;100.00
9672;BME280;4874;43.568;27.824;2023-03-01T05:02:53;99871.44;;;5.26;100.00
9672;BME280;4874;43.568;27.824;2023-03-01T05:05:35;99844.69;;;4.89;100.00
9672;BME280;4874;43.568;27.824;2023-03-01T05:08:07;99892.06;;;5.34;100.00
9672;BME280;4874;43.568;27.824;2023-03-01T05:10:35;99886.53;;;5.38;100.00
9672;BME280;4874;43.568;27.824;2023-03-01T05:13:03;99878.31;;;5.58;100.00
9672;BME280;4874;43.568;27.824;2023-03-01T05:15:31;99891.41;;;5.30;100.00
9672;BME280;4874;43.568;27.824;2023-03-01T05:17:59;99889.44;;;5.34;100.00
9672;BME280;4874;43.568;27.824;2023-03-01T05:20:27;99881.78;;;5.45;100.00
9672;BME280;4874;43.568;27.824;2023-03-01T05:22:57;99877.47;;;5.58;100.00
9672;BME280;4874;43.568;27.824;2023-03-01T05:25:25;99877.66;;;5.25;100.00
9672;BME280;4874;43.568;27.824;2023-03-01T05:27:52;99882.03;;;5.40;100.00
9672;BME280;4874;43.568;27.824;2023-03-01T05:30:19;99881.44;;;5.35;100.00
9672;BME280;4874;43.568;27.824;2023-03-01T05:32:48;99881.91;;;5.28;100.00
9672;BME280;4874;43.568;27.824;2023-03-01T05:35:17;99867.94;;;5.12;100.00
9672;BME280;4874;43.568;27.824;2023-03-01T05:37:46;99882.78;;;5.42;100.00
9672;BME280;4874;43.568;27.824;2023-03-01T05:40:18;99884.53;;;5.28;100.00
9672;BME280;4874;43.568;27.824;2023-03-01T05:42:52;99881.53;;;5.34;100.00
9672;BME280;4874;43.568;27.824;2023-03-01T05:45:20;99851.63;;;5.21;100.00
9672;BME280;4874;43.568;27.824;2023-03-01T05:47:48;99874.44;;;5.20;100.00
9672;BME280;4874;43.568;27.824;2023-03-01T05:52:51;99877.66;;;5.55;100.00
9672;BME280;4874;43.568;27.824;2023-03-01T05:55:20;99886.56;;;5.52;100.00
9672;BME280;4874;43.568;27.824;2023-03-01T05:57:47;99885.38;;;5.28;100.00
9672;BME280;4874;43.568;27.824;2023-03-01T06:00:16;99889.84;;;5.12;100.00
9672;BME280;4874;43.568;27.824;2023-03-01T06:02:43;99897.16;;;5.37;100.00
9672;BME280;4874;43.568;27.824;2023-03-01T06:05:12;99810.94;;;4.97;100.00
9672;BME280;4874;43.568;27.824;2023-03-01T06:07:40;99893.59;;;5.38;100.00
9672;BME280;4874;43.568;27.824;2023-03-01T06:10:08;99895.50;;;5.50;100.00
9672;BME280;4874;43.568;27.824;2023-03-01T06:12:37;99898.44;;;5.30;100.00
9672;BME280;4874;43.568;27.824;2023-03-01T06:15:05;99888.88;;;5.13;100.00
9672;BME280;4874;43.568;27.824;2023-03-01T06:17:34;99901.97;;;5.44;100.00
9672;BME280;4874;43.568;27.824;2023-03-01T06:20:09;99903.56;;;5.33;100.00
9672;BME280;4874;43.568;27.824;2023-03-01T06:22:37;99893.69;;;5.50;100.00
9672;BME280;4874;43.568;27.824;2023-03-01T06:25:04;99904.47;;;5.61;100.00
9672;BME280;4874;43.568;27.824;2023-03-01T06:27:31;99897.72;;;5.12;100.00
9672;BME280;4874;43.568;27.824;2023-03-01T06:29:58;99906.31;;;5.16;100.00
9672;BME280;4874;43.568;27.824;2023-03-01T06:32:24;99909.78;;;5.46;100.00
9672;BME280;4874;43.568;27.824;2023-03-01T06:34:51;99905.56;;;5.43;100.00
9672;BME280;4874;43.568;27.824;2023-03-01T06:37:18;99902.38;;;5.52;100.00
9672;BME280;4874;43.568;27.824;2023-03-01T06:39:44;99900.28;;;5.43;100.00
9672;BME280;4874;43.568;27.824;2023-03-01T06:42:11;99896.28;;;5.52;100.00
9672;BME280;4874;43.568;27.824;2023-03-01T06:44:38;99898.16;;;5.64;100.00
9672;BME280;4874;43.568;27.824;2023-03-01T06:47:05;99888.66;;;5.61;100.00
9672;BME280;4874;43.568;27.824;2023-03-01T06:49:31;99899.50;;;5.71;100.00
9672;BME280;4874;43.568;27.824;2023-03-01T06:51:58;99894.50;;;5.37;100.00
9672;BME280;4874;43.568;27.824;2023-03-01T06:54:25;99899.00;;;5.35;100.00
9672;BME280;4874;43.568;27.824;2023-03-01T06:56:51;99901.22;;;5.42;100.00
9672;BME280;4874;43.568;27.824;2023-03-01T06:59:18;99903.69;;;5.30;100.00
9672;BME280;4874;43.568;27.824;2023-03-01T07:01:45;99877.16;;;5.19;100.00
9672;BME280;4874;43.568;27.824;2023-03-01T07:04:12;99894.25;;;5.41;100.00
9672;BME280;4874;43.568;27.824;2023-03-01T07:06:40;99892.31;;;5.45;100.00
9672;BME280;4874;43.568;27.824;2023-03-01T07:09:06;99884.34;;;5.74;100.00
9672;BME280;4874;43.568;27.824;2023-03-01T07:11:33;99888.03;;;5.72;100.00
9672;BME280;4874;43.568;27.824;2023-03-01T07:14:00;99883.78;;;5.26;100.00
9672;BME280;4874;43.568;27.824;2023-03-01T07:16:26;99875.16;;;5.38;100.00
9672;BME280;4874;43.568;27.824;2023-03-01T07:18:53;99887.72;;;5.48;100.00
9672;BME280;4874;43.568;27.824;2023-03-01T07:21:20;99887.81;;;5.61;100.00
9672;BME280;4874;43.568;27.824;2023-03-01T07:23:48;99867.84;;;5.43;100.00
9672;BME280;4874;43.568;27.824;2023-03-01T07:26:15;99896.22;;;5.38;100.00
9672;BME280;4874;43.568;27.824;2023-03-01T07:28:42;99883.13;;;5.66;100.00
9672;BME280;4874;43.568;27.824;2023-03-01T07:31:08;99890.16;;;5.51;100.00
9672;BME280;4874;43.568;27.824;2023-03-01T07:33:35;99841.09;;;5.21;100.00
9672;BME280;4874;43.568;27.824;2023-03-01T07:36:03;99880.88;;;5.30;100.00
9672;BME280;4874;43.568;27.824;2023-03-01T07:38:30;99883.16;;;5.50;100.00
9672;BME280;4874;43.568;27.824;2023-03-01T07:41:00;99887.75;;;5.76;100.00
9672;BME280;4874;43.568;27.824;2023-03-01T07:43:28;99884.97;;;5.64;100.00
9672;BME280;4874;43.568;27.824;2023-03-01T07:45:58;99891.44;;;5.74;100.00
9672;BME280;4874;43.568;27.824;2023-03-01T07:48:25;99908.16;;;5.73;100.00
9672;BME280;4874;43.568;27.824;2023-03-01T07:50:51;99905.38;;;5.90;100.00
9672;BME280;4874;43.568;27.824;2023-03-01T07:53:18;99891.41;;;5.60;100.00
9672;BME280;4874;43.568;27.824;2023-03-01T07:55:45;99896.13;;;5.39;100.00
9672;BME280;4874;43.568;27.824;2023-03-01T07:58:11;99899.97;;;5.34;100.00
9672;BME280;4874;43.568;27.824;2023-03-01T08:00:38;99897.75;;;5.26;100.00
9672;BME280;4874;43.568;27.824;2023-03-01T08:03:05;99896.06;;;5.25;100.00
9672;BME280;4874;43.568;27.824;2023-03-01T08:05:35;99892.97;;;5.62;100.00
9672;BME280;4874;43.568;27.824;2023-03-01T08:08:02;99884.97;;;5.93;100.00
9672;BME280;4874;43.568;27.824;2023-03-01T08:10:28;99878.94;;;5.91;100.00
9672;BME280;4874;43.568;27.824;2023-03-01T08:12:55;99880.47;;;5.95;100.00
9672;BME280;4874;43.568;27.824;2023-03-01T08:15:22;99876.34;;;5.62;100.00
9672;BME280;4874;43.568;27.824;2023-03-01T08:17:49;99871.97;;;5.47;100.00
9672;BME280;4874;43.568;27.824;2023-03-01T08:20:16;99868.81;;;5.56;100.00
9672;BME280;4874;43.568;27.824;2023-03-01T08:22:45;99875.25;;;5.36;100.00
9672;BME280;4874;43.568;27.824;2023-03-01T08:25:12;99838.06;;;5.27;100.00
9672;BME280;4874;43.568;27.824;2023-03-01T08:27:38;99896.66;;;5.60;100.00
9672;BME280;4874;43.568;27.824;2023-03-01T08:30:06;99888.53;;;5.49;100.00
9672;BME280;4874;43.568;27.824;2023-03-01T08:32:37;99885.97;;;5.18;100.00
9672;BME280;4874;43.568;27.824;2023-03-01T08:35:04;99892.25;;;5.31;100.00
9672;BME280;4874;43.568;27.824;2023-03-01T08:37:31;99890.97;;;5.38;100.00
9672;BME280;4874;43.568;27.824;2023-03-01T08:39:59;99892.41;;;5.43;100.00
9672;BME280;4874;43.568;27.824;2023-03-01T08:42:26;99872.06;;;5.45;100.00
9672;BME280;4874;43.568;27.824;2023-03-01T08:44:53;99889.34;;;5.35;100.00
9672;BME280;4874;43.568;27.824;2023-03-01T08:47:20;99895.47;;;5.36;100.00
9672;BME280;4874;43.568;27.824;2023-03-01T08:49:50;99894.50;;;5.37;100.00
9672;BME280;4874;43.568;27.824;2023-03-01T08:52:17;99892.66;;;5.39;100.00
9672;BME280;4874;43.568;27.824;2023-03-01T08:54:44;99891.06;;;5.50;100.00
9672;BME280;4874;43.568;27.824;2023-03-01T08:57:10;99878.19;;;5.16;100.00
9672;BME280;4874;43.568;27.824;2023-03-01T08:59:39;99883.44;;;5.16;100.00
9672;BME280;4874;43.568;27.824;2023-03-01T09:02:13;99881.31;;;5.23;100.00
9672;BME280;4874;43.568;27.824;2023-03-01T09:04:41;99875.50;;;5.32;100.00
9672;BME280;4874;43.568;27.824;2023-03-01T09:07:08;99874.22;;;5.39;100.00
9672;BME280;4874;43.568;27.824;2023-03-01T09:09:36;99880.47;;;5.22;100.00
9672;BME280;4874;43.568;27.824;2023-03-01T09:12:03;99881.94;;;5.12;100.00
9672;BME280;4874;43.568;27.824;2023-03-01T09:14:30;99878.72;;;5.37;100.00
9672;BME280;4874;43.568;27.824;2023-03-01T09:16:57;99888.09;;;5.27;100.00
9672;BME280;4874;43.568;27.824;2023-03-01T09:19:24;99881.53;;;5.34;100.00
9672;BME280;4874;43.568;27.824;2023-03-01T09:21:52;99885.81;;;5.50;100.00
9672;BME280;4874;43.568;27.824;2023-03-01T09:24:20;99880.22;;;5.70;100.00
9672;BME280;4874;43.568;27.824;2023-03-01T09:26:47;99878.47;;;5.85;100.00
9672;BME280;4874;43.568;27.824;2023-03-01T09:29:17;99857.97;;;5.90;100.00
9672;BME280;4874;43.568;27.824;2023-03-01T09:31:43;99876.59;;;5.87;100.00
9672;BME280;4874;43.568;27.824;2023-03-01T09:34:10;99869.28;;;6.20;100.00
9672;BME280;4874;43.568;27.824;2023-03-01T09:36:37;99873.41;;;6.24;100.00
9672;BME280;4874;43.568;27.824;2023-03-01T09:39:04;99870.84;;;6.23;100.00
9672;BME280;4874;43.568;27.824;2023-03-01T09:42:00;99870.72;;;5.82;100.00
9672;BME280;4874;43.568;27.824;2023-03-01T09:44:38;99869.56;;;5.87;100.00
9672;BME280;4874;43.568;27.824;2023-03-01T09:47:14;99868.97;;;5.96;100.00
9672;BME280;4874;43.568;27.824;2023-03-01T09:49:43;99861.63;;;6.16;100.00
9672;BME280;4874;43.568;27.824;2023-03-01T09:54:46;99786.41;;;5.68;100.00
9672;BME280;4874;43.568;27.824;2023-03-01T09:57:30;99858.53;;;6.37;100.00
9672;BME280;4874;43.568;27.824;2023-03-01T10:02:45;99854.84;;;6.26;100.00
9672;BME280;4874;43.568;27.824;2023-03-01T10:10:38;99832.06;;;6.25;100.00
9672;BME280;4874;43.568;27.824;2023-03-01T10:13:24;99819.94;;;6.63;100.00
9672;BME280;4874;43.568;27.824;2023-03-01T10:15:56;99830.38;;;6.64;100.00
9672;BME280;4874;43.568;27.824;2023-03-01T10:18:30;99831.94;;;6.81;100.00
9672;BME280;4874;43.568;27.824;2023-03-01T10:21:18;99833.03;;;6.64;100.00
9672;BME280;4874;43.568;27.824;2023-03-01T10:23:50;99827.31;;;6.58;100.00
9672;BME280;4874;43.568;27.824;2023-03-01T10:29:10;99834.50;;;6.42;100.00
9672;BME280;4874;43.568;27.824;2023-03-01T10:31:44;99824.63;;;6.31;100.00
9672;BME280;4874;43.568;27.824;2023-03-01T10:34:33;99812.75;;;6.38;100.00
9672;BME280;4874;43.568;27.824;2023-03-01T10:37:09;99818.41;;;6.32;100.00
9672;BME280;4874;43.568;27.824;2023-03-01T10:39:54;99811.84;;;6.25;100.00
9672;BME280;4874;43.568;27.824;2023-03-01T10:42:32;99759.78;;;6.15;100.00
9672;BME280;4874;43.568;27.824;2023-03-01T10:47:45;99796.47;;;6.32;100.00
9672;BME280;4874;43.568;27.824;2023-03-01T10:50:21;99798.66;;;6.52;100.00
9672;BME280;4874;43.568;27.824;2023-03-01T10:53:01;99785.50;;;6.38;100.00
9672;BME280;4874;43.568;27.824;2023-03-01T10:55:39;99791.91;;;6.48;100.00
9672;BME280;4874;43.568;27.824;2023-03-01T10:58:20;99785.13;;;6.70;100.00
9672;BME280;4874;43.568;27.824;2023-03-01T11:03:25;99775.59;;;6.82;100.00
9672;BME280;4874;43.568;27.824;2023-03-01T11:06:04;99767.31;;;6.74;100.00
9672;BME280;4874;43.568;27.824;2023-03-01T11:08:40;99783.50;;;6.55;100.00
9672;BME280;4874;43.568;27.824;2023-03-01T11:11:36;99779.84;;;6.70;100.00
9672;BME280;4874;43.568;27.824;2023-03-01T11:14:16;99778.97;;;6.57;100.00
9672;BME280;4874;43.568;27.824;2023-03-01T11:19:39;99788.28;;;6.63;100.00
9672;BME280;4874;43.568;27.824;2023-03-01T11:22:14;99780.25;;;6.64;100.00
9672;BME280;4874;43.568;27.824;2023-03-01T11:24:46;99770.63;;;6.51;100.00
9672;BME280;4874;43.568;27.824;2023-03-01T11:27:28;99776.56;;;6.40;100.00
9672;BME280;4874;43.568;27.824;2023-03-01T11:32:53;99766.50;;;6.33;100.00
9672;BME280;4874;43.568;27.824;2023-03-01T11:35:25;99768.63;;;6.54;100.00
9672;BME280;4874;43.568;27.824;2023-03-01T11:38:16;99765.22;;;6.79;100.00
9672;BME280;4874;43.568;27.824;2023-03-01T11:40:44;99756.41;;;6.66;100.00
9672;BME280;4874;43.568;27.824;2023-03-01T11:43:28;99722.69;;;6.44;100.00
9672;BME280;4874;43.568;27.824;2023-03-01T11:49:19;99741.94;;;6.59;100.00
9672;BME280;4874;43.568;27.824;2023-03-01T11:52:05;99734.13;;;6.57;100.00
9672;BME280;4874;43.568;27.824;2023-03-01T12:08:46;99710.03;;;6.88;100.00
9672;BME280;4874;43.568;27.824;2023-03-01T12:11:39;99704.84;;;6.74;100.00
9672;BME280;4874;43.568;27.824;2023-03-01T12:33:13;99714.91;;;6.55;100.00
9672;BME280;4874;43.568;27.824;2023-03-01T12:49:28;99691.00;;;6.71;100.00
9672;BME280;4874;43.568;27.824;2023-03-01T12:52:01;99706.34;;;6.91;100.00
9672;BME280;4874;43.568;27.824;2023-03-01T12:54:31;99705.16;;;6.70;100.00
9672;BME280;4874;43.568;27.824;2023-03-01T12:57:14;99711.72;;;6.50;100.00
9672;BME280;4874;43.568;27.824;2023-03-01T13:02:45;99702.25;;;6.48;100.00
9672;BME280;4874;43.568;27.824;2023-03-01T13:07:49;99697.34;;;6.42;100.00
9672;BME280;4874;43.568;27.824;2023-03-01T13:13:12;99689.94;;;6.61;100.00
9672;BME280;4874;43.568;27.824;2023-03-01T13:15:40;99696.44;;;6.55;100.00
9672;BME280;4874;43.568;27.824;2023-03-01T13:26:12;99677.09;;;6.16;100.00
9672;BME280;4874;43.568;27.824;2023-03-01T13:33:51;99685.25;;;6.39;100.00
9672;BME280;4874;43.568;27.824;2023-03-01T13:44:18;99679.28;;;6.62;100.00
9672;BME280;4874;43.568;27.824;2023-03-01T13:46:47;99688.75;;;6.52;100.00
9672;BME280;4874;43.568;27.824;2023-03-01T13:49:18;99676.94;;;6.58;100.00
9672;BME280;4874;43.568;27.824;2023-03-01T13:51:47;99675.94;;;6.46;100.00
9672;BME280;4874;43.568;27.824;2023-03-01T13:54:16;99644.41;;;6.45;100.00
9672;BME280;4874;43.568;27.824;2023-03-01T13:56:46;99660.53;;;6.40;100.00
9672;BME280;4874;43.568;27.824;2023-03-01T13:59:15;99673.47;;;6.57;100.00
9672;BME280;4874;43.568;27.824;2023-03-01T14:01:42;99625.19;;;6.04;100.00
9672;BME280;4874;43.568;27.824;2023-03-01T14:04:24;99665.50;;;6.45;100.00
9672;BME280;4874;43.568;27.824;2023-03-01T14:06:52;99650.63;;;6.44;100.00
9672;BME280;4874;43.568;27.824;2023-03-01T14:09:39;99665.81;;;6.40;100.00
9672;BME280;4874;43.568;27.824;2023-03-01T14:12:29;99665.22;;;6.23;100.00
9672;BME280;4874;43.568;27.824;2023-03-01T14:20:22;99669.94;;;6.44;100.00
9672;BME280;4874;43.568;27.824;2023-03-01T14:22:52;99674.34;;;6.05;100.00
9672;BME280;4874;43.568;27.824;2023-03-01T14:25:31;99678.50;;;6.21;100.00
9672;BME280;4874;43.568;27.824;2023-03-01T14:28:03;99685.47;;;6.49;100.00
9672;BME280;4874;43.568;27.824;2023-03-01T14:30:35;99677.59;;;6.61;100.00
9672;BME280;4874;43.568;27.824;2023-03-01T14:33:15;99676.78;;;6.86;100.00
9672;BME280;4874;43.568;27.824;2023-03-01T14:36:11;99669.91;;;6.83;100.00
9672;BME280;4874;43.568;27.824;2023-03-01T14:38:46;99659.59;;;6.80;100.00
9672;BME280;4874;43.568;27.824;2023-03-01T14:41:19;99664.84;;;6.68;100.00
9672;BME280;4874;43.568;27.824;2023-03-01T14:43:51;99672.22;;;6.63;100.00
9672;BME280;4874;43.568;27.824;2023-03-01T14:46:35;99675.06;;;6.72;100.00
9672;BME280;4874;43.568;27.824;2023-03-01T14:49:12;99670.19;;;6.54;100.00
9672;BME280;4874;43.568;27.824;2023-03-01T14:51:45;99624.97;;;6.33;100.00
9672;BME280;4874;43.568;27.824;2023-03-01T14:56:54;99659.03;;;6.75;100.00
9672;BME280;4874;43.568;27.824;2023-03-01T14:59:22;99657.88;;;6.79;100.00
9672;BME280;4874;43.568;27.824;2023-03-01T15:01:51;99653.22;;;6.70;100.00
9672;BME280;4874;43.568;27.824;2023-03-01T15:04:20;99645.50;;;6.67;100.00
9672;BME280;4874;43.568;27.824;2023-03-01T15:06:50;99664.50;;;6.60;100.00
9672;BME280;4874;43.568;27.824;2023-03-01T15:09:18;99667.78;;;6.76;100.00
9672;BME280;4874;43.568;27.824;2023-03-01T15:11:45;99647.94;;;6.58;100.00
9672;BME280;4874;43.568;27.824;2023-03-01T15:14:28;99655.00;;;6.57;100.00
9672;BME280;4874;43.568;27.824;2023-03-01T15:16:55;99646.53;;;6.52;100.00
9672;BME280;4874;43.568;27.824;2023-03-01T15:19:23;99653.59;;;6.52;100.00
9672;BME280;4874;43.568;27.824;2023-03-01T15:21:52;99655.28;;;6.40;100.00
9672;BME280;4874;43.568;27.824;2023-03-01T15:24:20;99654.78;;;6.48;100.00
9672;BME280;4874;43.568;27.824;2023-03-01T15:26:52;99649.72;;;6.57;100.00
9672;BME280;4874;43.568;27.824;2023-03-01T15:29:35;99653.03;;;6.73;100.00
9672;BME280;4874;43.568;27.824;2023-03-01T15:32:33;99647.09;;;6.82;100.00
9672;BME280;4874;43.568;27.824;2023-03-01T15:35:09;99652.06;;;6.74;100.00
9672;BME280;4874;43.568;27.824;2023-03-01T15:37:48;99667.56;;;6.79;100.00
9672;BME280;4874;43.568;27.824;2023-03-01T15:43:02;99657.09;;;6.52;100.00
9672;BME280;4874;43.568;27.824;2023-03-01T15:45:32;99656.69;;;6.71;100.00
9672;BME280;4874;43.568;27.824;2023-03-01T15:48:05;99668.84;;;6.86;100.00
9672;BME280;4874;43.568;27.824;2023-03-01T15:50:41;99651.03;;;6.77;100.00